Time;durP1;ratioP1;P1;durP2;ratioP2;P2;SDS_P1;SDS_P2;PMS_P1;PMS_P2;Temp;Humidity;BMP_temperature;BMP_pressure;BME280_temperature;BME280_humidity;BME280_pressure;Samples;Min_cycle;Max_cycle;Signal;HPM_P1;HPM_P2
2021/01/08 00:00:07;;;;;;;2.55;2.45;;;;;;;3.84;100.00;98793.45;1831332;78;22073;-68
2021/01/08 00:02:37;;;;;;;2.55;2.45;;;;;;;3.79;100.00;98801.85;1831066;78;21460;-68
2021/01/08 00:05:08;;;;;;;2.42;2.22;;;;;;;3.72;100.00;98802.22;1831193;78;20998;-69
2021/01/08 00:07:37;;;;;;;2.12;2.02;;;;;;;3.66;100.00;98804.17;1799738;78;20950;-69
2021/01/08 00:10:07;;;;;;;2.37;2.17;;;;;;;3.62;100.00;98803.94;1831255;78;20998;-69
2021/01/08 00:12:36;;;;;;;3.17;2.22;;;;;;;3.57;100.00;98806.38;1831230;78;21595;-68
2021/01/08 00:15:06;;;;;;;2.50;2.30;;;;;;;3.51;100.00;98809.23;1831155;78;21022;-68
2021/01/08 00:17:34;;;;;;;2.10;2.00;;;;;;;3.47;100.00;98818.00;1831214;78;21021;-68
2021/01/08 00:20:05;;;;;;;2.00;1.90;;;;;;;3.42;100.00;98814.80;1831165;78;20943;-68
2021/01/08 00:22:33;;;;;;;2.17;2.08;;;;;;;3.37;100.00;98812.89;1831306;78;21350;-70
2021/01/08 00:25:03;;;;;;;2.35;2.25;;;;;;;3.31;100.00;98815.30;1831397;78;22149;-69
2021/01/08 00:27:32;;;;;;;2.55;2.08;;;;;;;3.26;100.00;98823.22;1831388;78;20938;-69
2021/01/08 00:30:00;;;;;;;2.20;2.10;;;;;;;3.20;100.00;98831.70;1831411;78;20923;-68
2021/01/08 00:32:28;;;;;;;1.90;1.80;;;;;;;3.17;100.00;98833.12;1831409;78;21018;-70
2021/01/08 00:34:57;;;;;;;2.00;1.90;;;;;;;3.12;100.00;98836.34;1831536;78;21563;-69
2021/01/08 00:37:25;;;;;;;2.83;1.90;;;;;;;3.05;100.00;98840.92;1831424;78;21255;-71
2021/01/08 00:39:53;;;;;;;1.90;1.80;;;;;;;2.96;99.75;98848.59;1831287;78;21030;-68
2021/01/08 00:42:22;;;;;;;1.82;1.72;;;;;;;2.89;99.21;98854.06;1831432;78;21468;-68
2021/01/08 00:44:51;;;;;;;1.90;1.80;;;;;;;2.79;98.54;98848.96;1831327;78;20931;-68
2021/01/08 00:47:19;;;;;;;1.95;1.85;;;;;;;2.65;98.04;98849.09;1827164;78;21574;-69
2021/01/08 00:49:48;;;;;;;1.82;1.70;;;;;;;2.55;97.78;98850.38;1802493;78;21262;-69
2021/01/08 00:52:16;;;;;;;1.70;1.60;;;;;;;2.47;97.61;98856.73;1825318;78;21004;-69
2021/01/08 00:54:48;;;;;;;1.70;1.70;;;;;;;2.37;97.37;98857.59;1825296;78;21024;-68
2021/01/08 00:57:22;;;;;;;1.82;1.72;;;;;;;2.29;97.21;98860.92;1823564;78;21060;-69
2021/01/08 00:59:52;;;;;;;1.90;1.80;;;;;;;2.21;97.08;98863.80;1825382;78;21472;-69
2021/01/08 01:02:21;;;;;;;1.60;1.60;;;;;;;2.13;96.78;98867.13;1825315;78;21391;-69
2021/01/08 01:04:50;;;;;;;1.57;1.52;;;;;;;2.05;96.66;98867.05;1825167;78;20921;-70
2021/01/08 01:07:18;;;;;;;1.75;1.75;;;;;;;1.96;96.71;98861.41;1825204;78;20921;-69
2021/01/08 01:09:46;;;;;;;1.60;1.60;;;;;;;1.92;96.86;98873.98;1825220;78;20949;-69
2021/01/08 01:12:15;;;;;;;1.77;1.70;;;;;;;1.86;96.72;98874.22;1825304;78;21005;-69
2021/01/08 01:14:43;;;;;;;1.90;1.80;;;;;;;1.80;96.86;98869.77;1825385;78;21527;-70
2021/01/08 01:17:12;;;;;;;2.00;1.90;;;;;;;1.77;97.05;98868.59;1825255;78;20913;-69
2021/01/08 01:19:41;;;;;;;2.00;1.90;;;;;;;1.72;96.87;98873.91;1825337;78;21364;-69
2021/01/08 01:22:09;;;;;;;1.65;1.65;;;;;;;1.67;97.00;98866.83;1825303;78;21340;-69
2021/01/08 01:24:38;;;;;;;1.72;1.62;;;;;;;1.64;97.02;98873.36;1825299;78;20937;-69
2021/01/08 01:27:06;;;;;;;1.80;1.70;;;;;;;1.61;97.05;98883.30;1825288;77;21196;-69
2021/01/08 01:29:34;;;;;;;1.55;1.55;;;;;;;1.59;97.13;98880.43;1825238;77;21008;-68
2021/01/08 01:32:03;;;;;;;1.60;1.60;;;;;;;1.57;97.14;98884.78;1825372;78;21538;-70
2021/01/08 01:34:31;;;;;;;1.42;1.42;;;;;;;1.54;97.22;98888.30;1825274;78;20917;-68
2021/01/08 01:36:59;;;;;;;1.50;1.50;;;;;;;1.56;97.42;98895.94;1825258;77;21025;-69
2021/01/08 01:39:28;;;;;;;1.70;1.70;;;;;;;1.52;97.16;98889.25;1825261;77;21176;-68
2021/01/08 01:41:56;;;;;;;1.67;1.60;;;;;;;1.50;97.29;98886.73;1825309;77;21446;-69
2021/01/08 01:44:24;;;;;;;1.90;1.80;;;;;;;1.51;97.45;98892.70;1825287;78;20981;-71
2021/01/08 01:46:53;;;;;;;1.80;1.70;;;;;;;1.51;97.36;98892.26;1830858;78;20928;-69
2021/01/08 01:49:21;;;;;;;1.70;1.70;;;;;;;1.52;97.43;98904.64;1840450;78;20923;-69
2021/01/08 01:51:49;;;;;;;1.70;1.67;;;;;;;1.52;97.41;98894.38;1798140;79;21312;-69
2021/01/08 01:54:17;;;;;;;1.75;1.72;;;;;;;1.50;97.25;98902.13;1840394;78;20998;-69
2021/01/08 01:56:46;;;;;;;1.50;1.50;;;;;;;1.46;97.11;98908.27;1798215;79;21000;-68
2021/01/08 01:59:14;;;;;;;1.60;1.60;;;;;;;1.47;97.32;98906.53;1840391;78;21023;-68
2021/01/08 02:01:42;;;;;;;1.67;1.67;;;;;;;1.47;97.37;98916.34;1840387;78;20904;-68
2021/01/08 02:04:11;;;;;;;1.57;1.57;;;;;;;1.49;97.27;98917.58;1798123;79;21196;-68
2021/01/08 02:06:39;;;;;;;1.70;1.60;;;;;;;1.49;97.35;98923.98;1840389;78;21363;-68
2021/01/08 02:09:12;;;;;;;1.50;1.50;;;;;;;1.49;97.34;98922.70;1798068;78;20933;-68
2021/01/08 02:11:44;;;;;;;1.60;1.60;;;;;;;1.50;97.18;98925.22;1840438;78;20924;-69
2021/01/08 02:14:29;;;;;;;1.55;1.55;;;;;;;1.48;97.15;98921.87;1798121;79;20945;-69
2021/01/08 02:16:58;;;;;;;1.70;1.60;;;;;;;1.49;97.12;98935.53;1840437;78;21320;-70
2021/01/08 02:19:40;;;;;;;1.60;1.60;;;;;;;1.49;97.07;98941.50;1798090;79;21558;-69
2021/01/08 02:22:14;;;;;;;1.80;1.80;;;;;;;1.48;97.02;98941.55;1766935;80;21515;-70
2021/01/08 02:25:11;;;;;;;1.65;1.65;;;;;;;1.46;96.94;98953.59;1797929;79;20953;-70
2021/01/08 02:27:39;;;;;;;1.57;1.57;;;;;;;1.45;96.86;98959.63;1764963;81;21082;-68
2021/01/08 02:30:09;;;;;;;1.57;1.57;;;;;;;1.44;96.86;98961.34;1798416;78;21378;-68
2021/01/08 02:32:37;;;;;;;1.60;1.60;;;;;;;1.43;96.90;98971.22;1798038;79;21558;-68
2021/01/08 02:35:08;;;;;;;1.50;1.50;;;;;;;1.45;96.89;98971.16;1840383;78;20999;-69
2021/01/08 02:37:42;;;;;;;1.50;1.50;;;;;;;1.46;96.96;98981.81;1840413;78;21019;-68
2021/01/08 02:40:12;;;;;;;1.50;1.50;;;;;;;1.47;96.90;98983.05;1798095;78;21068;-68
2021/01/08 02:42:41;;;;;;;1.45;1.40;;;;;;;1.47;96.76;98977.08;1840397;78;21198;-69
2021/01/08 02:45:11;;;;;;;1.70;1.70;;;;;;;1.46;96.55;98980.09;1798087;79;20988;-68
2021/01/08 02:47:39;;;;;;;1.60;1.60;;;;;;;1.46;96.37;98985.66;1831737;78;20909;-68
2021/01/08 02:50:09;;;;;;;1.70;1.70;;;;;;;1.44;96.26;98981.03;1825226;78;21534;-68
2021/01/08 02:52:40;;;;;;;1.90;1.80;;;;;;;1.45;96.29;98987.83;1825206;78;21008;-69
2021/01/08 02:55:10;;;;;;;1.70;1.60;;;;;;;1.43;96.19;98984.04;1825228;78;21186;-69
2021/01/08 02:57:41;;;;;;;1.80;1.70;;;;;;;1.43;96.43;98982.76;1802862;78;20965;-69
2021/01/08 03:00:11;;;;;;;1.70;1.70;;;;;;;1.43;96.15;98986.61;1802660;77;20973;-69
2021/01/08 03:02:39;;;;;;;1.60;1.60;;;;;;;1.43;96.18;98985.77;1825154;78;20893;-69
2021/01/08 03:05:08;;;;;;;1.82;1.82;;;;;;;1.44;96.20;98986.16;1825202;78;21573;-69
2021/01/08 03:07:36;;;;;;;1.87;1.80;;;;;;;1.45;96.14;98992.97;1825186;78;21252;-69
2021/01/08 03:10:06;;;;;;;1.90;1.80;;;;;;;1.44;95.91;98993.41;1825121;78;20982;-69
2021/01/08 03:12:35;;;;;;;1.70;1.70;;;;;;;1.42;96.04;98999.48;1825152;78;21036;-68
2021/01/08 03:15:05;;;;;;;1.98;1.87;;;;;;;1.42;96.05;99002.89;1825155;77;21494;-68
2021/01/08 03:17:33;;;;;;;1.90;1.80;;;;;;;1.41;96.05;99008.91;1803075;78;20917;-68
2021/01/08 03:20:04;;;;;;;2.00;1.90;;;;;;;1.40;96.12;99011.53;1824954;78;21973;-68
2021/01/08 03:22:32;;;;;;;2.10;2.00;;;;;;;1.41;96.20;99014.48;1825197;78;20914;-68
2021/01/08 03:25:03;;;;;;;2.00;1.90;;;;;;;1.41;96.11;99014.48;1825105;77;20929;-68
2021/01/08 03:27:31;;;;;;;2.12;2.02;;;;;;;1.39;96.05;99018.83;1825125;78;20945;-68
2021/01/08 03:29:59;;;;;;;2.10;2.00;;;;;;;1.39;96.10;99020.11;1825197;78;20992;-68
2021/01/08 03:32:28;;;;;;;2.10;2.00;;;;;;;1.39;96.10;99021.39;1825165;78;21313;-68
2021/01/08 03:34:56;;;;;;;2.10;2.00;;;;;;;1.38;96.03;99023.13;1825175;78;21609;-68
2021/01/08 03:37:24;;;;;;;2.20;2.10;;;;;;;1.37;96.14;99018.87;1825240;78;21032;-68
2021/01/08 03:39:53;;;;;;;2.00;1.90;;;;;;;1.37;96.01;99029.59;1825092;78;20937;-68
2021/01/08 03:42:21;;;;;;;2.80;2.58;;;;;;;1.36;96.21;99028.75;1825180;78;20929;-68
2021/01/08 03:44:50;;;;;;;2.50;2.40;;;;;;;1.38;96.18;99036.39;1825137;78;21337;-68
2021/01/08 03:47:18;;;;;;;2.40;2.30;;;;;;;1.36;96.02;99037.72;1825133;78;21542;-68
2021/01/08 03:53:50;;;;;;;2.92;2.72;;;;;;;1.36;96.22;99032.59;1806788;78;20929;-69
2021/01/08 03:56:18;;;;;;;2.22;2.12;;;;;;;1.38;96.01;99055.63;1825144;78;20996;-69
2021/01/08 03:58:47;;;;;;;2.30;2.20;;;;;;;1.35;96.14;99038.61;1825184;77;21191;-68
2021/01/08 04:01:16;;;;;;;2.17;2.08;;;;;;;1.37;96.16;99056.52;1825100;78;20945;-68
2021/01/08 04:03:44;;;;;;;2.60;2.50;;;;;;;1.39;96.14;99061.15;1825134;78;21039;-69
2021/01/08 04:06:12;;;;;;;2.45;2.25;;;;;;;1.38;95.87;99057.75;1825164;78;21455;-68
2021/01/08 04:08:41;;;;;;;2.60;2.40;;;;;;;1.38;95.96;99058.19;1825132;78;20921;-68
2021/01/08 04:11:09;;;;;;;2.60;2.50;;;;;;;1.38;96.09;99058.19;1825229;78;21470;-69
2021/01/08 04:13:37;;;;;;;2.72;2.62;;;;;;;1.40;96.15;99057.25;1825100;78;21012;-68
2021/01/08 04:16:06;;;;;;;2.98;2.77;;;;;;;1.43;96.03;99064.84;1825123;77;21091;-68
2021/01/08 04:18:34;;;;;;;2.42;2.33;;;;;;;1.44;95.84;99060.10;1825104;78;21037;-68
2021/01/08 04:21:03;;;;;;;2.90;2.70;;;;;;;1.43;95.92;99061.44;1825174;78;20925;-68
2021/01/08 04:23:31;;;;;;;2.55;2.45;;;;;;;1.43;95.85;99062.27;1825239;78;22114;-68
2021/01/08 04:25:59;;;;;;;2.83;2.72;;;;;;;1.43;95.73;99063.56;1825207;78;20909;-68
2021/01/08 04:28:28;;;;;;;3.20;2.90;;;;;;;1.42;95.80;99072.14;1825219;78;20992;-68
2021/01/08 04:30:56;;;;;;;3.70;3.40;;;;;;;1.43;95.83;99075.55;1825099;77;20981;-70
2021/01/08 04:33:24;;;;;;;2.72;2.62;;;;;;;1.45;95.67;99089.16;1825251;78;21630;-69
2021/01/08 04:35:53;;;;;;;2.70;2.60;;;;;;;1.44;95.70;99096.45;1825081;78;21197;-68
2021/01/08 04:38:21;;;;;;;2.85;2.70;;;;;;;1.44;95.61;99100.30;1825082;78;20941;-68
2021/01/08 04:40:49;;;;;;;2.80;2.70;;;;;;;1.43;95.75;99096.06;1825107;77;20937;-69
2021/01/08 04:43:18;;;;;;;3.15;2.95;;;;;;;1.42;95.57;99093.11;1825198;78;20989;-69
2021/01/08 04:45:46;;;;;;;3.50;3.20;;;;;;;1.41;95.44;99110.22;1825122;78;21000;-72
2021/01/08 04:48:14;;;;;;;3.10;2.90;;;;;;;1.39;95.44;99112.00;1832861;78;21572;-68
2021/01/08 04:50:43;;;;;;;3.65;3.45;;;;;;;1.39;95.50;99111.16;1797931;79;20909;-69
2021/01/08 04:53:11;;;;;;;4.28;3.98;;;;;;;1.41;95.91;99114.52;1812833;78;20943;-70
2021/01/08 04:55:40;;;;;;;4.25;3.87;;;;;;;1.43;95.76;99117.87;1797955;79;20921;-70
2021/01/08 04:58:09;;;;;;;3.70;3.40;;;;;;;1.43;95.51;99119.98;1840327;78;20896;-69
2021/01/08 05:00:37;;;;;;;3.83;3.52;;;;;;;1.44;95.53;99131.09;1797937;79;21321;-69
2021/01/08 05:03:05;;;;;;;3.75;3.37;;;;;;;1.44;95.52;99129.80;1840267;78;20971;-69
2021/01/08 05:05:34;;;;;;;3.52;3.33;;;;;;;1.43;95.27;99128.12;1840386;78;21503;-68
2021/01/08 05:08:02;;;;;;;3.27;3.08;;;;;;;1.44;95.42;99132.37;1797957;79;20933;-69
2021/01/08 05:10:30;;;;;;;4.37;4.08;;;;;;;1.44;95.38;99138.34;1840349;78;21362;-69
2021/01/08 05:12:59;;;;;;;3.77;3.47;;;;;;;1.46;95.31;99133.16;1798157;79;21204;-68
2021/01/08 05:15:27;;;;;;;3.98;3.67;;;;;;;1.45;95.07;99137.45;1840447;78;21549;-69
2021/01/08 05:17:56;;;;;;;5.30;3.50;;;;;;;1.46;95.28;99141.69;1798139;79;20973;-68
2021/01/08 05:20:24;;;;;;;3.60;3.40;;;;;;;1.49;95.34;99145.88;1840356;78;21026;-70
2021/01/08 05:22:53;;;;;;;4.05;3.50;;;;;;;1.51;95.42;99162.06;1798247;79;21004;-69
2021/01/08 05:25:21;;;;;;;3.77;3.47;;;;;;;1.55;95.50;99161.08;1840423;78;21458;-69
2021/01/08 05:31:35;;;;;;;5.47;4.80;;;;;;;1.60;95.07;99172.83;1840330;78;21002;-68
2021/01/08 05:34:03;;;;;;;4.60;4.20;;;;;;;1.60;94.97;99170.74;1798142;79;21483;-68
2021/01/08 05:36:32;;;;;;;3.75;3.45;;;;;;;1.61;94.97;99172.39;1840472;78;20880;-69
2021/01/08 05:39:01;;;;;;;3.90;3.65;;;;;;;1.63;94.90;99168.88;1840433;78;21128;-68
2021/01/08 05:41:30;;;;;;;4.10;3.80;;;;;;;1.64;94.70;99187.23;1798152;78;21498;-68
2021/01/08 05:44:00;;;;;;;3.50;3.30;;;;;;;1.66;94.59;99188.03;1765285;80;20931;-69
2021/01/08 05:46:37;;;;;;;3.95;3.65;;;;;;;1.68;94.48;99191.83;1798066;79;20949;-75
2021/01/08 05:49:05;;;;;;;4.05;3.75;;;;;;;1.72;94.45;99200.27;1791824;79;20931;-74
2021/01/08 05:51:39;;;;;;;4.12;3.72;;;;;;;1.78;94.50;99198.33;1783099;80;21256;-75
2021/01/08 05:54:07;;;;;;;4.67;4.22;;;;;;;1.83;94.25;99210.57;1797332;79;21574;-72
2021/01/08 05:56:37;;;;;;;4.45;4.05;;;;;;;1.86;93.85;99212.20;1797261;78;20996;-70
2021/01/08 05:59:09;;;;;;;4.58;4.22;;;;;;;1.87;93.46;99224.14;1797269;78;21649;-69
2021/01/08 06:01:38;;;;;;;4.33;4.00;;;;;;;1.86;93.29;99228.44;1797398;79;21526;-69
2021/01/08 06:04:08;;;;;;;4.30;4.00;;;;;;;1.86;92.96;99236.14;1797217;79;21260;-69
2021/01/08 06:06:43;;;;;;;4.22;3.92;;;;;;;1.86;92.86;99237.42;1797161;79;21024;-69
2021/01/08 06:09:13;;;;;;;6.33;5.50;;;;;;;1.85;92.90;99238.75;1797378;79;20925;-69
2021/01/08 06:11:44;;;;;;;4.17;3.87;;;;;;;1.89;93.28;99242.45;1797173;78;20929;-69
2021/01/08 06:14:14;;;;;;;4.08;3.77;;;;;;;1.94;92.79;99248.28;1797286;79;21487;-68
2021/01/08 06:16:45;;;;;;;4.65;4.25;;;;;;;1.96;92.74;99249.51;1764405;79;21351;-70
2021/01/08 06:19:14;;;;;;;4.70;4.30;;;;;;;2.00;92.78;99260.04;1797155;79;21008;-69
2021/01/08 06:21:45;;;;;;;4.45;4.15;;;;;;;2.04;92.32;99265.91;1797223;79;20953;-69
2021/01/08 06:24:25;;;;;;;4.35;3.95;;;;;;;2.06;91.95;99271.39;1797203;79;21111;-69
2021/01/08 06:26:54;;;;;;;4.10;3.80;;;;;;;2.10;91.76;99272.97;1792398;79;20910;-70
2021/01/08 06:29:23;;;;;;;4.30;4.00;;;;;;;2.11;91.21;99280.23;1797235;79;21380;-69
2021/01/08 06:31:53;;;;;;;4.00;3.70;;;;;;;2.08;90.91;99292.72;1797255;79;20945;-70
2021/01/08 06:34:27;;;;;;;4.35;3.98;;;;;;;2.04;90.84;99296.28;1797196;79;20933;-69
2021/01/08 06:37:10;;;;;;;5.03;4.53;;;;;;;2.03;90.90;99301.47;1797365;79;20949;-69
2021/01/08 06:39:45;;;;;;;5.28;4.30;;;;;;;2.00;90.62;99305.81;1797245;79;21589;-67
2021/01/08 06:42:27;;;;;;;4.60;4.03;;;;;;;1.95;90.42;99309.45;1797624;79;22147;-68
2021/01/08 06:44:55;;;;;;;4.00;3.70;;;;;;;1.90;90.63;99313.45;1796508;79;21016;-69
2021/01/08 06:47:24;;;;;;;4.20;3.90;;;;;;;1.88;90.79;99316.95;1797333;79;21483;-70
2021/01/08 06:49:53;;;;;;;3.92;3.62;;;;;;;1.88;91.08;99320.80;1790200;79;20890;-70
2021/01/08 06:52:21;;;;;;;4.15;3.85;;;;;;;1.90;91.14;99306.19;1789757;80;21480;-68
2021/01/08 06:54:54;;;;;;;4.75;4.10;;;;;;;1.91;91.01;99315.57;1789655;80;21493;-68
2021/01/08 06:57:22;;;;;;;4.97;4.50;;;;;;;1.90;90.97;99316.02;1789682;80;20969;-69
2021/01/08 07:00:05;;;;;;;5.03;4.58;;;;;;;1.92;91.16;99333.94;1789633;80;20933;-70
2021/01/08 07:02:34;;;;;;;4.50;4.10;;;;;;;1.94;91.13;99335.56;1789684;80;20890;-69
2021/01/08 07:05:03;;;;;;;4.75;4.37;;;;;;;1.99;91.22;99341.39;1735208;80;20942;-69
2021/01/08 07:07:32;;;;;;;4.35;4.05;;;;;;;2.03;91.04;99337.41;1789641;79;21604;-69
2021/01/08 07:10:01;;;;;;;4.33;3.92;;;;;;;2.05;90.92;99344.18;1789666;80;21621;-69
2021/01/08 07:12:29;;;;;;;4.08;3.77;;;;;;;2.11;90.97;99355.98;1734566;80;20933;-68
2021/01/08 07:14:57;;;;;;;3.98;3.67;;;;;;;2.15;90.70;99360.13;1789566;80;20993;-69
2021/01/08 07:17:31;;;;;;;3.70;3.40;;;;;;;2.20;90.90;99361.66;1789655;80;20989;-69
2021/01/08 07:20:01;;;;;;;3.50;3.30;;;;;;;2.26;90.68;99368.33;1789663;80;21070;-68
2021/01/08 07:22:38;;;;;;;4.03;3.72;;;;;;;2.31;90.50;99373.72;1789577;80;21135;-68
2021/01/08 07:25:13;;;;;;;4.12;3.60;;;;;;;2.35;90.03;99378.31;1789668;80;20984;-69
2021/01/08 07:27:43;;;;;;;3.80;3.60;;;;;;;2.37;89.91;99378.27;1789595;80;20973;-69
2021/01/08 07:30:13;;;;;;;4.00;3.70;;;;;;;2.43;90.07;99376.30;1789734;80;20953;-69
2021/01/08 07:32:48;;;;;;;3.80;3.50;;;;;;;2.44;89.53;99382.28;1789597;80;21141;-68
2021/01/08 07:35:24;;;;;;;3.90;3.60;;;;;;;2.44;89.56;99394.68;1789677;80;22474;-68
2021/01/08 07:38:14;;;;;;;4.08;3.70;;;;;;;2.46;89.57;99391.62;1789671;80;20926;-68
2021/01/08 07:40:56;;;;;;;4.53;4.15;;;;;;;2.52;89.43;99395.27;1789604;80;20997;-68
2021/01/08 07:43:36;;;;;;;3.52;3.33;;;;;;;2.54;89.28;99407.63;1789749;80;20981;-69
2021/01/08 07:46:05;;;;;;;3.70;3.42;;;;;;;2.55;89.25;99398.19;1789624;80;21827;-69
2021/01/08 07:48:40;;;;;;;3.52;3.30;;;;;;;2.58;89.03;99401.49;1789333;79;20961;-69
2021/01/08 07:51:13;;;;;;;3.87;3.58;;;;;;;2.63;88.88;99411.63;1789157;80;20934;-69
2021/01/08 07:53:46;;;;;;;3.80;3.50;;;;;;;2.63;88.68;99411.63;1789185;80;21591;-69
2021/01/08 07:56:21;;;;;;;3.72;3.42;;;;;;;2.63;88.74;99417.60;1788974;80;35062;-69
2021/01/08 07:59:03;;;;;;;3.80;3.50;;;;;;;2.63;88.46;99417.60;1789158;80;22033;-69
2021/01/08 08:01:34;;;;;;;3.95;3.65;;;;;;;2.66;88.63;99414.09;1788961;80;20969;-68
2021/01/08 08:04:07;;;;;;;4.00;3.70;;;;;;;2.70;88.49;99422.54;1789038;80;21013;-69
2021/01/08 08:06:39;;;;;;;3.67;3.40;;;;;;;2.73;88.46;99420.70;1789018;80;21583;-68
2021/01/08 08:09:19;;;;;;;4.08;3.67;;;;;;;2.80;88.54;99420.86;1789085;80;21001;-69
2021/01/08 08:11:49;;;;;;;4.45;4.10;;;;;;;2.87;88.31;99432.62;1788944;80;20989;-69
2021/01/08 08:14:18;;;;;;;4.20;3.90;;;;;;;2.94;87.91;99417.83;1788902;78;21012;-70
2021/01/08 08:16:47;;;;;;;4.45;4.05;;;;;;;2.98;87.67;99425.83;1789164;80;20961;-70
2021/01/08 08:19:16;;;;;;;4.25;3.90;;;;;;;3.01;87.10;99430.42;1788981;80;21000;-69
2021/01/08 08:21:48;;;;;;;4.05;3.72;;;;;;;3.02;87.17;99432.55;1789063;80;21554;-70
2021/01/08 08:24:17;;;;;;;4.00;3.70;;;;;;;3.06;86.96;99442.28;1789036;80;21206;-69
2021/01/08 08:26:47;;;;;;;3.70;3.42;;;;;;;3.08;86.73;99445.64;1788463;80;21570;-69
2021/01/08 08:29:17;;;;;;;3.50;3.20;;;;;;;3.08;86.26;99445.20;1789124;80;21503;-70
2021/01/08 08:31:50;;;;;;;3.40;3.20;;;;;;;3.07;86.52;99456.38;1788926;80;20993;-70
2021/01/08 08:34:31;;;;;;;3.60;3.35;;;;;;;3.05;86.33;99449.16;1789079;80;20957;-70
2021/01/08 08:37:09;;;;;;;4.30;3.90;;;;;;;3.04;86.25;99450.05;1789060;80;21133;-68
2021/01/08 08:39:38;;;;;;;4.33;3.92;;;;;;;3.00;85.88;99453.17;1764920;80;21001;-69
2021/01/08 08:42:07;;;;;;;4.10;3.67;;;;;;;2.94;85.72;99468.81;1789056;80;21005;-69
2021/01/08 08:44:46;;;;;;;4.40;4.00;;;;;;;2.88;85.90;99474.16;1789095;80;21048;-69
2021/01/08 08:47:15;;;;;;;4.53;3.85;;;;;;;2.86;86.13;99476.38;1789243;80;21000;-69
2021/01/08 08:49:44;;;;;;;4.95;4.47;;;;;;;2.84;86.24;99484.59;1789469;80;22499;-69
2021/01/08 08:52:13;;;;;;;5.22;4.45;;;;;;;2.83;86.28;99485.04;1789705;80;20918;-70
2021/01/08 08:54:45;;;;;;;4.83;4.42;;;;;;;2.79;86.12;99480.92;1742434;80;21368;-70
2021/01/08 08:57:13;;;;;;;4.20;3.65;;;;;;;2.77;86.21;99485.27;1776146;80;20989;-71
2021/01/08 08:59:45;;;;;;;4.40;4.00;;;;;;;2.79;86.13;99501.94;1758529;81;20942;-70
2021/01/08 09:02:28;;;;;;;4.50;4.10;;;;;;;2.79;86.15;99504.50;1758550;81;21375;-70
2021/01/08 09:04:59;;;;;;;4.60;4.17;;;;;;;2.80;85.93;99507.47;1758553;81;21036;-69
2021/01/08 09:07:34;;;;;;;4.37;3.98;;;;;;;2.79;85.79;99507.08;1758457;81;21043;-69
2021/01/08 09:10:14;;;;;;;3.65;3.45;;;;;;;2.76;85.80;99512.31;1758497;81;21025;-69
2021/01/08 09:13:18;;;;;;;4.30;3.90;;;;;;;2.77;85.57;99508.86;1758681;81;21324;-69
2021/01/08 09:16:06;;;;;;;4.67;4.28;;;;;;;2.77;85.68;99512.27;1758520;81;21339;-70
2021/01/08 09:18:55;;;;;;;4.53;4.12;;;;;;;2.77;85.84;99505.84;1758162;81;21052;-69
2021/01/08 09:21:26;;;;;;;3.95;3.65;;;;;;;2.77;85.64;99508.41;1758528;81;20945;-69
2021/01/08 09:24:00;;;;;;;4.10;3.80;;;;;;;2.78;85.64;99510.09;1758575;81;21837;-69
2021/01/08 09:26:30;;;;;;;4.28;3.98;;;;;;;2.77;85.75;99508.41;1758561;81;21020;-69
2021/01/08 09:28:59;;;;;;;3.80;3.50;;;;;;;2.79;85.87;99499.36;1758654;81;22105;-69
2021/01/08 09:31:44;;;;;;;3.95;3.65;;;;;;;2.82;86.00;99505.66;1758503;81;20962;-69
2021/01/08 09:34:19;;;;;;;3.58;3.37;;;;;;;2.85;86.03;99501.25;1758508;81;21040;-69
2021/01/08 09:36:48;;;;;;;4.37;3.98;;;;;;;2.88;85.83;99498.59;1758591;81;21001;-69
2021/01/08 09:39:17;;;;;;;4.42;3.83;;;;;;;2.90;85.84;99500.66;1758479;81;21016;-69
2021/01/08 09:41:45;;;;;;;3.85;3.55;;;;;;;2.94;85.71;99507.38;1758550;81;22061;-68
2021/01/08 09:44:15;;;;;;;3.67;3.47;;;;;;;2.94;85.69;99503.52;1758448;81;20988;-70
2021/01/08 09:47:09;;;;;;;4.45;4.05;;;;;;;2.96;85.66;99503.03;1758537;81;20961;-70
2021/01/08 09:49:48;;;;;;;4.03;3.72;;;;;;;2.96;85.80;99500.46;1758242;81;21558;-70
2021/01/08 09:52:17;;;;;;;4.47;4.08;;;;;;;3.00;85.85;99504.61;1758021;81;20965;-70
2021/01/08 09:54:48;;;;;;;4.33;4.03;;;;;;;3.09;85.77;99501.34;1754495;81;21218;-69
2021/01/08 09:57:34;;;;;;;3.92;3.62;;;;;;;3.13;85.56;99507.61;1757932;81;21451;-71
2021/01/08 10:00:11;;;;;;;4.35;3.95;;;;;;;3.17;85.30;99510.92;1758211;81;20949;-70
2021/01/08 10:02:48;;;;;;;5.17;3.62;;;;;;;3.22;85.14;99518.02;1754385;81;20945;-69
2021/01/08 10:05:31;;;;;;;4.03;3.40;;;;;;;3.25;84.92;99499.45;1757537;81;21005;-71
2021/01/08 10:08:01;;;;;;;3.77;3.42;;;;;;;3.29;84.90;99519.48;1758037;81;22174;-69
2021/01/08 10:10:37;;;;;;;3.20;3.00;;;;;;;3.30;84.48;99507.85;1757857;81;21436;-69
2021/01/08 10:13:07;;;;;;;3.58;3.37;;;;;;;3.29;84.04;99509.19;1758000;81;21009;-68
2021/01/08 10:15:41;;;;;;;4.03;3.72;;;;;;;3.23;83.38;99529.53;1757991;81;21025;-69
2021/01/08 10:18:11;;;;;;;3.60;3.30;;;;;;;3.21;83.42;99530.03;1757984;81;21039;-70
2021/01/08 10:20:53;;;;;;;3.70;3.50;;;;;;;3.17;83.31;99530.22;1758008;81;22099;-70
2021/01/08 10:23:25;;;;;;;3.77;3.47;;;;;;;3.13;83.21;99529.48;1757841;81;20971;-69
2021/01/08 10:25:54;;;;;;;3.50;3.20;;;;;;;3.12;83.22;99539.38;1757919;81;20965;-69
2021/01/08 10:28:24;;;;;;;4.45;4.12;;;;;;;3.14;83.46;99550.90;1757953;80;21496;-68
2021/01/08 10:30:54;;;;;;;4.40;4.10;;;;;;;3.15;83.52;99551.30;1757916;81;20941;-68
2021/01/08 10:33:24;;;;;;;3.72;3.42;;;;;;;3.15;83.50;99553.87;1757997;81;21208;-69
2021/01/08 10:35:55;;;;;;;4.80;4.40;;;;;;;3.13;83.32;99561.64;1757807;81;20960;-71
2021/01/08 10:38:24;;;;;;;4.58;4.15;;;;;;;3.11;83.22;99567.28;1757951;81;21056;-69
2021/01/08 10:40:53;;;;;;;5.30;4.90;;;;;;;3.08;83.41;99567.37;1757859;81;20941;-70
2021/01/08 10:43:21;;;;;;;4.83;4.20;;;;;;;3.05;83.52;99567.47;1757936;81;20938;-69
2021/01/08 10:45:50;;;;;;;5.10;4.70;;;;;;;3.05;83.62;99565.34;1757945;81;21205;-70
2021/01/08 10:48:19;;;;;;;8.03;5.92;;;;;;;3.05;83.61;99573.06;1757895;81;21005;-70
2021/01/08 10:50:48;;;;;;;5.83;5.22;;;;;;;3.00;83.73;99574.05;1764026;81;20944;-70
2021/01/08 10:53:17;;;;;;;8.63;6.85;;;;;;;2.99;84.07;99571.53;1766212;80;21000;-70
2021/01/08 10:55:49;;;;;;;6.97;5.53;;;;;;;2.99;84.36;99568.95;1766264;81;21040;-69
2021/01/08 10:58:19;;;;;;;5.95;5.35;;;;;;;2.99;84.46;99568.52;1766251;81;21208;-69
2021/01/08 11:00:48;;;;;;;4.95;4.50;;;;;;;3.00;85.08;99571.48;1766143;81;21657;-70
2021/01/08 11:03:16;;;;;;;5.37;4.87;;;;;;;3.04;85.22;99570.94;1766255;81;20957;-70
2021/01/08 11:05:45;;;;;;;7.17;5.55;;;;;;;3.08;85.37;99575.09;1766207;81;21079;-70
2021/01/08 11:08:14;;;;;;;6.58;5.97;;;;;;;3.10;84.83;99577.61;1766222;81;20953;-70
2021/01/08 11:10:43;;;;;;;6.95;6.25;;;;;;;3.09;84.65;99586.22;1766240;81;21216;-71
2021/01/08 11:13:11;;;;;;;7.10;6.12;;;;;;;3.07;84.47;99583.70;1766201;81;20960;-71
2021/01/08 11:15:39;;;;;;;5.55;5.05;;;;;;;3.02;84.69;99589.44;1766277;81;21153;-70
2021/01/08 11:18:08;;;;;;;5.80;5.20;;;;;;;3.01;84.56;99586.47;1766193;81;21617;-69
2021/01/08 11:20:37;;;;;;;6.00;5.40;;;;;;;2.99;84.66;99581.37;1766287;81;21013;-70
2021/01/08 11:23:05;;;;;;;6.97;6.10;;;;;;;2.98;84.70;99579.69;1766181;81;21212;-71
2021/01/08 11:25:34;;;;;;;6.62;5.35;;;;;;;3.00;84.75;99579.64;1766200;81;20956;-71
2021/01/08 11:28:02;;;;;;;9.30;7.53;;;;;;;3.01;84.60;99580.88;1766199;81;20909;-71
2021/01/08 11:30:31;;;;;;;7.90;7.10;;;;;;;3.04;84.56;99581.23;1766212;80;21577;-70
2021/01/08 11:33:00;;;;;;;11.95;7.87;;;;;;;3.05;84.52;99582.06;1766257;81;21024;-70
2021/01/08 11:35:29;;;;;;;6.50;5.78;;;;;;;3.04;84.61;99582.95;1766243;81;21211;-71
2021/01/08 11:37:57;;;;;;;7.78;6.60;;;;;;;3.05;84.32;99582.06;1766153;81;21012;-72
2021/01/08 11:40:26;;;;;;;7.28;6.55;;;;;;;3.04;84.21;99577.37;1766183;80;20961;-71
2021/01/08 11:42:55;;;;;;;9.38;7.97;;;;;;;3.04;84.16;99584.24;1766280;81;20940;-71
2021/01/08 11:45:23;;;;;;;8.23;7.15;;;;;;;3.01;84.16;99582.61;1766234;80;20964;-72
2021/01/08 11:47:51;;;;;;;8.80;7.65;;;;;;;2.98;84.08;99580.98;1766241;81;21215;-70
2021/01/08 11:50:22;;;;;;;8.05;7.12;;;;;;;2.96;83.93;99575.48;1766030;81;20921;-70
2021/01/08 11:52:50;;;;;;;7.25;6.55;;;;;;;2.92;83.90;99582.45;1766236;81;20938;-72
2021/01/08 11:55:18;;;;;;;9.40;7.65;;;;;;;2.91;83.73;99583.79;1766164;81;20961;-71
2021/01/08 11:57:46;;;;;;;12.58;10.13;;;;;;;2.89;83.87;99589.42;1766250;81;20969;-70
2021/01/08 12:00:15;;;;;;;12.70;10.30;;;;;;;2.87;83.94;99596.34;1766193;80;21263;-70
2021/01/08 12:02:44;;;;;;;11.95;9.73;;;;;;;2.85;83.87;99596.84;1766142;80;21072;-70
2021/01/08 12:05:13;;;;;;;9.90;8.45;;;;;;;2.82;83.86;99594.36;1766261;81;20949;-70